Dellys, Algérie

08:57 CET le 24 novembre 2014 (GMT +0100)
Houari Boumediene | Change Station
CLOSE
Current Station
Aéroport
Location: Algiers Airport,
Altitude: 82 ft
Stations météo à proximité

Alt. 82 ft 36.69 °N, 3.22 °E | Updated 27 minutes ago

Mostly Cloudy
Nuageux
72 ° F
Paraît 72 ° F
N
14
Vent Variable Vent de Sud

Aujourd'hui
Haut(e) -- | Bas -- ° F
--% Risque de précip.
Hier
Haut(e) -- | Bas -- ° F
Precip. -- pouce
7:31 AM 5:29 PM
Lune montante, 4% visible
Pression 30.06 pouce
Visibilité 6.2 Miles terrestres
Nuages Peu 2600 ft
Nuageux 4000 ft
Point de rosée 48 ° F
Humidité 43%
Précipitations 0.00 pouce
Profondeur de la couche neigeuse Non disponible.
UV 0 sur 12
Pollen Non disponible.
Qualité de l'air Non disponible.
Flu Activity Non disponible.
METAR DAAG 240730Z 17012KT 140V200 9999 FEW026 BKN040 22/09 Q1018

More Conditions Fewer Conditions

Pression 30.06 pouce
Visibilité 6.2 Miles terrestres
Nuages Peu 2600 ft
Nuageux 4000 ft
Point de rosée 48 ° F
Humidité 43%
Précipitations 0.00 pouce
Profondeur de la couche neigeuse Non disponible.
UV 0 sur 12
Pollen Non disponible.
Qualité de l'air Non disponible.
Flu Activity Non disponible.
METAR DAAG 240730Z 17012KT 140V200 9999 FEW026 BKN040 22/09 Q1018

More Conditions Fewer Conditions

10-Day Weather Forecast

Almanac

Astronomie

Nov. 24, 2014 Lever Coucher
Temps réel
Crépuscule civil
Crépuscule nautique
Crépuscule astronomique
Lune
Durée de lumière visible
Longueur du jour
Tomorrow will be .
, % of the Moon is Illuminated

Extrêmes aujourd'hui

Country Highs Country Lows

Community

WunderPhotos

Upload Photos

1,773,295 Photos téléchargées !

WunderBlogs® & News

Nearby

Qualité de l'air

  Qualité de l'air Indice de la qualité de l'air Polluant
Not available.

Épaisseur de neige

Station Depth Altitude

Activité sismique

Ville Distance Mag. Time & Date
Minimum magnitude displayed is 2.5.

Températures des eaux côtières

Lieu Température

Stations météo à proximité